createdAt,value
2022-12-15T00:00:59.837Z,53.67
2022-12-15T00:03:26.450Z,52.08
2022-12-15T00:05:52.800Z,50.08
2022-12-15T00:08:19.033Z,53.25
2022-12-15T00:10:45.535Z,51.15
2022-12-15T00:13:12.186Z,51.08
2022-12-15T00:15:38.611Z,51.83
2022-12-15T00:18:04.955Z,54.90
2022-12-15T00:20:31.201Z,50.22
2022-12-15T00:22:57.512Z,52.42
2022-12-15T00:25:23.875Z,50.67
2022-12-15T00:27:50.265Z,49.00
2022-12-15T00:30:16.570Z,51.75
2022-12-15T00:32:42.943Z,54.72
2022-12-15T00:35:09.406Z,51.22
2022-12-15T00:37:35.662Z,50.00
2022-12-15T00:40:01.941Z,53.45
2022-12-15T00:42:28.205Z,50.30
2022-12-15T00:44:54.692Z,51.95
2022-12-15T00:47:20.966Z,53.40
2022-12-15T00:49:47.304Z,50.72
2022-12-15T00:52:13.601Z,51.83
2022-12-15T00:54:39.904Z,51.38
2022-12-15T00:57:06.258Z,54.67
2022-12-15T00:59:32.579Z,54.25
2022-12-15T01:01:59.065Z,49.92
2022-12-15T01:04:25.565Z,49.88
2022-12-15T01:06:51.853Z,50.03
2022-12-15T01:09:18.159Z,53.53
2022-12-15T01:11:44.545Z,51.45
2022-12-15T01:14:10.782Z,51.22
2022-12-15T01:16:37.178Z,54.13
2022-12-15T01:19:03.506Z,49.00
2022-12-15T01:21:29.855Z,53.38
2022-12-15T01:23:56.087Z,51.00
2022-12-15T01:26:22.459Z,56.38
2022-12-15T01:28:48.816Z,51.88
2022-12-15T01:31:15.275Z,51.30
2022-12-15T01:33:41.605Z,53.10
2022-12-15T01:36:07.909Z,51.60
2022-12-15T01:38:34.239Z,52.25
2022-12-15T01:41:00.555Z,53.85
2022-12-15T01:43:26.943Z,49.65
2022-12-15T01:45:53.316Z,50.45
2022-12-15T01:48:19.646Z,51.85
2022-12-15T01:50:45.947Z,52.40
2022-12-15T01:53:12.385Z,52.17
2022-12-15T01:55:38.686Z,52.47
2022-12-15T01:58:05.124Z,51.90
2022-12-15T02:00:31.416Z,53.65
2022-12-15T02:02:58.132Z,53.60
2022-12-15T02:05:24.747Z,53.00
2022-12-15T02:07:51.139Z,52.63
2022-12-15T02:10:17.527Z,55.97
2022-12-15T02:12:43.903Z,51.60
2022-12-15T02:15:10.289Z,52.42
2022-12-15T02:17:36.677Z,53.80
2022-12-15T02:20:03.038Z,54.20
2022-12-15T02:22:29.318Z,57.45
2022-12-15T02:24:55.593Z,53.58
2022-12-15T02:27:22.030Z,52.20
2022-12-15T02:29:48.468Z,55.20
2022-12-15T02:32:14.783Z,56.28
2022-12-15T02:34:41.130Z,56.30
2022-12-15T02:37:07.411Z,52.40
2022-12-15T02:39:33.750Z,54.88
2022-12-15T02:42:00.079Z,53.90
2022-12-15T02:44:26.348Z,55.88
2022-12-15T02:46:52.648Z,55.67
2022-12-15T02:49:18.911Z,53.20
2022-12-15T02:51:45.274Z,55.35
2022-12-15T02:54:11.529Z,55.20
2022-12-15T02:56:37.888Z,55.63
2022-12-15T02:59:04.252Z,56.00
2022-12-15T03:01:30.707Z,55.33
2022-12-15T03:03:57.274Z,54.65
2022-12-15T03:06:23.642Z,54.67
2022-12-15T03:08:49.913Z,54.75
2022-12-15T03:11:16.210Z,53.03
2022-12-15T03:13:42.627Z,52.65
2022-12-15T03:16:08.930Z,52.67
2022-12-15T03:18:35.246Z,56.55
2022-12-15T03:21:01.544Z,55.47
2022-12-15T03:23:28.072Z,53.17
2022-12-15T03:25:54.764Z,56.75
2022-12-15T03:28:21.146Z,54.35
2022-12-15T03:30:50.390Z,51.85
2022-12-15T03:33:17.083Z,55.63
2022-12-15T03:35:43.327Z,56.25
2022-12-15T03:38:10.148Z,54.45
2022-12-15T03:40:36.568Z,53.88
2022-12-15T03:43:03.056Z,57.05
2022-12-15T03:45:29.609Z,51.55
2022-12-15T03:47:56.245Z,54.47
2022-12-15T03:50:22.536Z,54.78
2022-12-15T03:52:49.156Z,54.88
2022-12-15T03:55:15.470Z,56.97
2022-12-15T03:57:41.798Z,52.47
2022-12-15T04:00:08.058Z,56.45
2022-12-15T04:02:34.470Z,54.13
2022-12-15T04:05:00.978Z,53.00
2022-12-15T04:07:27.316Z,53.85
2022-12-15T04:09:53.857Z,55.38
2022-12-15T04:12:20.099Z,57.30
2022-12-15T04:14:46.378Z,55.83
2022-12-15T04:17:15.996Z,54.65
2022-12-15T04:19:42.514Z,53.50
2022-12-15T04:22:11.553Z,54.70
2022-12-15T04:24:40.124Z,56.17
2022-12-15T04:27:06.388Z,56.55
2022-12-15T04:29:32.711Z,51.03
2022-12-15T04:31:59.030Z,56.83
2022-12-15T04:34:25.391Z,56.90
2022-12-15T04:36:51.762Z,56.28
2022-12-15T04:39:18.114Z,57.90
2022-12-15T04:41:44.525Z,54.85
2022-12-15T04:44:10.848Z,56.70
2022-12-15T04:46:37.264Z,55.63
2022-12-15T04:49:03.639Z,56.45
2022-12-15T04:51:29.948Z,54.20
2022-12-15T04:53:56.258Z,54.78
2022-12-15T04:56:22.505Z,52.35
2022-12-15T04:58:48.882Z,52.40
2022-12-15T05:01:15.254Z,56.17
2022-12-15T05:03:41.569Z,57.00
2022-12-15T05:06:07.985Z,52.85
2022-12-15T05:08:34.459Z,55.08
2022-12-15T05:11:00.753Z,55.72
2022-12-15T05:13:27.299Z,57.17
2022-12-15T05:15:53.678Z,52.33
2022-12-15T05:18:20.041Z,52.65
2022-12-15T05:20:46.272Z,53.17
2022-12-15T05:23:16.680Z,53.53
2022-12-15T05:25:42.979Z,55.13
2022-12-15T05:28:09.290Z,52.90
2022-12-15T05:30:35.715Z,60.35
2022-12-15T05:33:02.060Z,55.22
2022-12-15T05:35:28.431Z,55.45
2022-12-15T05:37:54.764Z,49.55
2022-12-15T05:40:21.211Z,53.20
2022-12-15T05:42:50.224Z,56.90
2022-12-15T05:45:16.732Z,54.58
2022-12-15T05:47:43.116Z,52.42
2022-12-15T05:50:09.593Z,55.95
2022-12-15T05:52:35.893Z,53.65
2022-12-15T05:55:02.156Z,58.20
2022-12-15T05:57:28.495Z,53.28
2022-12-15T05:59:54.799Z,52.50
2022-12-15T06:02:21.084Z,54.72
2022-12-15T06:04:47.592Z,54.55
2022-12-15T06:07:14.035Z,54.90
2022-12-15T06:09:40.304Z,53.05
2022-12-15T06:12:06.602Z,55.60
2022-12-15T06:14:32.934Z,52.38
2022-12-15T06:16:59.314Z,50.33
2022-12-15T06:19:25.727Z,51.95
2022-12-15T06:21:52.063Z,53.83
2022-12-15T06:24:18.345Z,51.20
2022-12-15T06:26:44.743Z,56.75
2022-12-15T06:29:11.149Z,60.33
2022-12-15T06:31:37.468Z,51.28
2022-12-15T06:34:03.799Z,55.90
2022-12-15T06:36:30.144Z,53.17
2022-12-15T06:38:56.670Z,53.42
2022-12-15T06:41:23.065Z,54.22
2022-12-15T06:43:49.553Z,52.58
2022-12-15T06:46:16.158Z,53.72
2022-12-15T06:48:42.645Z,51.00
2022-12-15T06:51:16.396Z,54.08
2022-12-15T06:53:43.512Z,53.85
2022-12-15T06:56:09.752Z,54.30
2022-12-15T06:58:36.202Z,55.58
2022-12-15T07:01:02.507Z,52.28
2022-12-15T07:03:29.101Z,51.58
2022-12-15T07:05:55.760Z,50.90
2022-12-15T07:08:27.050Z,51.70
2022-12-15T07:10:56.663Z,54.63
2022-12-15T07:13:22.975Z,56.42
2022-12-15T07:15:49.472Z,55.05
2022-12-15T07:18:16.248Z,52.88
2022-12-15T07:20:42.595Z,51.53
2022-12-15T07:23:08.871Z,51.72
2022-12-15T07:25:35.130Z,52.40
2022-12-15T07:28:01.900Z,55.22
2022-12-15T07:30:29.584Z,50.22
2022-12-15T07:32:57.717Z,52.40
2022-12-15T07:35:24.149Z,55.03
2022-12-15T07:37:50.556Z,54.72
2022-12-15T07:40:16.828Z,51.75
2022-12-15T07:42:43.302Z,51.20
2022-12-15T07:45:09.624Z,57.25
2022-12-15T07:47:36.846Z,54.47
2022-12-15T07:50:03.291Z,51.00
2022-12-15T07:52:29.537Z,52.47
2022-12-15T07:54:55.923Z,56.40
2022-12-15T07:57:22.255Z,53.05
2022-12-15T07:59:48.573Z,53.60
2022-12-15T08:02:15.215Z,54.95
2022-12-15T08:04:41.762Z,50.15
2022-12-15T08:07:08.170Z,50.08
2022-12-15T08:09:34.487Z,50.90
2022-12-15T08:12:00.896Z,55.22
2022-12-15T08:14:27.240Z,50.53
2022-12-15T08:16:53.570Z,53.42
2022-12-15T08:19:19.964Z,52.08
2022-12-15T08:21:46.315Z,53.95
2022-12-15T08:24:12.601Z,52.85
2022-12-15T08:26:39.045Z,53.10
2022-12-15T08:34:22.609Z,51.97
2022-12-15T08:36:48.932Z,53.15
2022-12-15T08:39:15.432Z,53.25
2022-12-15T08:41:41.699Z,50.25
2022-12-15T08:44:08.116Z,51.72
2022-12-15T08:46:34.493Z,57.60
2022-12-15T08:49:00.937Z,54.22
2022-12-15T08:51:27.284Z,50.08
2022-12-15T08:53:53.682Z,53.47
2022-12-15T08:56:20.044Z,54.45
2022-12-15T08:58:46.560Z,87.72
2022-12-15T09:01:16.081Z,59.15
2022-12-15T09:03:47.146Z,59.97
2022-12-15T09:06:13.419Z,61.80
2022-12-15T09:08:39.722Z,72.75
2022-12-15T09:11:06.108Z,85.35
2022-12-15T09:13:32.804Z,89.32
2022-12-15T09:16:09.476Z,100.63
2022-12-15T09:18:36.908Z,107.43
2022-12-15T09:21:03.196Z,111.75
2022-12-15T09:23:29.909Z,117.78
2022-12-15T09:25:56.541Z,123.40
2022-12-15T09:28:22.871Z,122.15
2022-12-15T09:30:49.240Z,121.47
2022-12-15T09:33:15.482Z,124.65
2022-12-15T09:35:41.764Z,129.07
2022-12-15T09:38:08.032Z,133.95
2022-12-15T09:40:34.518Z,124.80
2022-12-15T09:43:32.718Z,128.73
2022-12-15T09:45:47.259Z,126.70
2022-12-15T09:48:13.589Z,125.13
2022-12-15T09:50:39.981Z,122.97
2022-12-15T09:53:23.138Z,121.30
2022-12-15T09:55:52.517Z,116.70
2022-12-15T09:58:19.297Z,116.90
2022-12-15T10:00:45.690Z,119.78
2022-12-15T10:08:18.642Z,118.68
2022-12-15T10:13:24.655Z,116.15
2022-12-15T10:15:51.033Z,121.63
2022-12-15T10:18:17.898Z,115.15
2022-12-15T10:20:44.311Z,126.70
2022-12-15T10:25:41.901Z,131.05
2022-12-15T10:28:08.240Z,125.28
2022-12-15T10:30:37.760Z,118.05
2022-12-15T10:33:04.191Z,121.03
2022-12-15T10:35:30.589Z,132.23
2022-12-15T10:37:57.018Z,144.90
2022-12-15T10:40:23.379Z,150.25
2022-12-15T10:42:49.820Z,150.93
2022-12-15T10:45:16.581Z,157.30
2022-12-15T10:47:43.031Z,153.38
2022-12-15T10:50:09.730Z,142.55
2022-12-15T10:52:36.164Z,143.60
2022-12-15T10:55:02.449Z,142.65
2022-12-15T10:57:28.716Z,139.80
2022-12-15T10:59:55.248Z,135.98
2022-12-15T11:02:24.306Z,143.63
2022-12-15T11:04:51.808Z,136.15
2022-12-15T11:07:18.071Z,140.55
2022-12-15T11:09:44.807Z,136.95
2022-12-15T11:12:12.574Z,139.30
2022-12-15T11:14:38.970Z,132.02
2022-12-15T11:17:05.309Z,132.10
2022-12-15T11:19:31.794Z,135.20
2022-12-15T11:21:58.185Z,135.52
2022-12-15T11:24:24.643Z,128.65
2022-12-15T11:26:51.403Z,128.10
2022-12-15T11:29:17.762Z,126.13
2022-12-15T11:31:44.122Z,120.32
2022-12-15T11:36:46.725Z,120.53
2022-12-15T11:39:14.958Z,119.65
2022-12-15T11:41:41.275Z,117.35
2022-12-15T11:44:07.563Z,110.10
2022-12-15T11:46:33.874Z,108.50
2022-12-15T11:49:00.242Z,99.18
2022-12-15T11:51:26.535Z,100.97
2022-12-15T11:53:52.782Z,95.40
2022-12-15T11:56:19.089Z,98.53
2022-12-15T11:58:45.370Z,93.72
2022-12-15T12:01:15.075Z,91.45
2022-12-15T12:03:41.444Z,89.68
2022-12-15T12:06:07.801Z,85.68
2022-12-15T12:08:34.886Z,86.43
2022-12-15T12:11:01.508Z,79.68
2022-12-15T12:13:27.833Z,81.45
2022-12-15T12:15:54.292Z,73.25
2022-12-15T12:18:20.624Z,80.57
2022-12-15T12:20:46.915Z,79.05
2022-12-15T12:23:13.220Z,71.93
2022-12-15T12:25:39.506Z,70.30
2022-12-15T12:28:05.861Z,67.65
2022-12-15T12:30:32.179Z,72.07
2022-12-15T12:32:58.625Z,68.32
2022-12-15T12:35:31.899Z,68.13
2022-12-15T12:38:03.101Z,71.68
2022-12-15T12:40:30.122Z,71.32
2022-12-15T12:42:56.533Z,69.68
2022-12-15T12:45:22.966Z,69.00
2022-12-15T12:47:49.333Z,67.85
2022-12-15T12:50:16.679Z,66.20
2022-12-15T12:52:42.995Z,64.38
2022-12-15T12:57:55.540Z,65.28
2022-12-15T13:00:22.057Z,62.15
2022-12-15T13:02:48.495Z,64.15
2022-12-15T13:05:16.871Z,65.88
2022-12-15T13:07:43.232Z,64.43
2022-12-15T13:10:10.077Z,61.00
2022-12-15T13:12:52.921Z,65.68
2022-12-15T13:15:20.084Z,61.15
2022-12-15T13:17:46.499Z,56.05
2022-12-15T13:20:15.108Z,58.20
2022-12-15T13:22:41.455Z,54.28
2022-12-15T13:25:07.716Z,54.40
2022-12-15T13:27:34.009Z,56.08
2022-12-15T13:30:00.264Z,51.83
2022-12-15T13:32:26.754Z,52.53
2022-12-15T13:34:53.160Z,56.92
2022-12-15T13:37:19.421Z,48.05
2022-12-15T13:39:45.747Z,52.92
2022-12-15T13:42:33.394Z,49.60
2022-12-15T13:45:01.680Z,47.40
2022-12-15T13:47:28.119Z,47.40
2022-12-15T13:50:01.070Z,47.92
2022-12-15T13:53:08.045Z,45.97
2022-12-15T13:55:14.738Z,46.38
2022-12-15T13:57:41.172Z,45.05
2022-12-15T14:00:07.453Z,45.83
2022-12-15T14:02:33.922Z,47.83
2022-12-15T14:05:00.246Z,44.58
2022-12-15T14:07:26.544Z,44.50
2022-12-15T14:09:52.836Z,40.88
2022-12-15T14:12:19.183Z,39.95
2022-12-15T14:14:45.574Z,42.78
2022-12-15T14:17:15.216Z,41.92
2022-12-15T14:19:41.512Z,43.15
2022-12-15T14:22:07.855Z,42.53
2022-12-15T14:24:38.903Z,42.90
2022-12-15T14:27:06.056Z,38.50
2022-12-15T14:29:32.509Z,41.72
2022-12-15T14:31:59.046Z,36.67
2022-12-15T14:34:25.449Z,38.35
2022-12-15T14:36:51.895Z,40.67
2022-12-15T14:39:18.328Z,38.47
2022-12-15T14:41:44.691Z,38.75
2022-12-15T14:44:37.365Z,36.50
2022-12-15T14:47:01.841Z,38.72
2022-12-15T14:49:28.257Z,36.78
2022-12-15T14:51:54.829Z,36.55
2022-12-15T14:54:21.339Z,36.42
2022-12-15T14:56:47.672Z,36.15
2022-12-15T14:59:13.949Z,36.30
2022-12-15T15:01:40.530Z,38.85
2022-12-15T15:03:09.638Z,68.97
2022-12-15T15:04:06.886Z,34.35
2022-12-15T15:06:33.355Z,35.47
2022-12-15T15:08:59.701Z,33.58
2022-12-15T15:11:26.021Z,32.95
2022-12-15T15:13:52.316Z,33.03
2022-12-15T15:16:18.842Z,33.20
2022-12-15T15:18:45.590Z,33.58
2022-12-15T15:21:11.851Z,35.17
2022-12-15T15:23:38.196Z,33.83
2022-12-15T15:26:04.853Z,36.05
2022-12-15T15:28:31.618Z,36.38
2022-12-15T15:30:58.278Z,32.28
2022-12-15T15:33:24.598Z,34.72
2022-12-15T15:35:51.053Z,34.40
2022-12-15T15:38:17.562Z,33.90
2022-12-15T15:40:44.319Z,31.00
2022-12-15T15:43:10.648Z,34.17
2022-12-15T15:45:36.930Z,34.85
2022-12-15T15:48:03.661Z,31.08
2022-12-15T15:50:29.986Z,31.33
2022-12-15T15:52:56.321Z,34.28
2022-12-15T15:55:22.599Z,32.35
2022-12-15T15:57:49.170Z,30.88
2022-12-15T16:00:15.395Z,33.50
2022-12-15T16:02:42.059Z,32.17
2022-12-15T16:05:08.529Z,34.05
2022-12-15T16:07:35.085Z,32.80
2022-12-15T16:10:01.349Z,33.22
2022-12-15T16:12:27.621Z,32.63
2022-12-15T16:14:53.896Z,31.23
2022-12-15T16:17:20.236Z,32.15
2022-12-15T16:19:46.517Z,31.77
2022-12-15T16:22:13.016Z,30.45
2022-12-15T16:24:39.266Z,32.83
2022-12-15T16:27:05.852Z,30.45
2022-12-15T16:29:32.291Z,33.80
2022-12-15T16:31:58.651Z,32.63
2022-12-15T16:34:25.033Z,32.17
2022-12-15T16:36:51.313Z,29.27
2022-12-15T16:39:17.751Z,32.78
2022-12-15T16:41:44.027Z,32.08
2022-12-15T16:44:10.261Z,32.00
2022-12-15T16:46:36.761Z,31.63
2022-12-15T16:49:03.103Z,29.88
2022-12-15T16:51:29.486Z,34.88
2022-12-15T16:53:55.951Z,31.20
2022-12-15T16:56:22.204Z,30.15
2022-12-15T16:58:52.881Z,33.00
2022-12-15T17:01:23.722Z,30.63
2022-12-15T17:03:50.199Z,29.73
2022-12-15T17:06:16.563Z,33.55
2022-12-15T17:08:42.863Z,28.75
2022-12-15T17:11:09.364Z,31.48
2022-12-15T17:13:40.606Z,27.50
2022-12-15T17:16:10.063Z,31.50
2022-12-15T17:18:36.628Z,30.15
2022-12-15T17:21:02.993Z,30.35
2022-12-15T17:23:29.562Z,31.75
2022-12-15T17:28:42.600Z,30.85
2022-12-15T17:31:09.003Z,30.02
2022-12-15T17:33:35.726Z,31.60
2022-12-15T17:36:02.240Z,27.85
2022-12-15T17:38:28.574Z,28.38
2022-12-15T17:40:54.902Z,31.10
2022-12-15T17:43:21.520Z,31.73
2022-12-15T17:45:47.961Z,31.30
2022-12-15T17:48:14.545Z,30.70
2022-12-15T17:50:40.867Z,27.35
2022-12-15T17:55:42.951Z,29.77
2022-12-15T18:00:49.166Z,121.65
2022-12-15T18:03:15.984Z,133.40
2022-12-15T18:05:42.466Z,115.85
2022-12-15T18:08:08.767Z,88.53
2022-12-15T18:10:35.149Z,74.10
2022-12-15T18:13:01.443Z,69.80
2022-12-15T18:15:27.946Z,114.57
2022-12-15T18:17:54.239Z,167.63
2022-12-15T18:20:20.603Z,138.63
2022-12-15T18:22:47.128Z,114.30
2022-12-15T18:30:27.973Z,99.97
2022-12-15T18:32:54.290Z,92.32
2022-12-15T18:35:20.655Z,92.35
2022-12-15T18:37:47.162Z,86.93
2022-12-15T18:40:13.531Z,77.82
2022-12-15T18:42:40.004Z,77.03
2022-12-15T18:45:06.280Z,73.75
2022-12-15T18:47:32.695Z,71.30
2022-12-15T18:49:59.027Z,70.88
2022-12-15T18:52:30.035Z,69.00
2022-12-15T18:54:59.480Z,71.07
2022-12-15T18:57:27.727Z,85.20
2022-12-15T18:59:54.028Z,195.52
2022-12-15T19:02:20.573Z,225.90
2022-12-15T19:09:58.007Z,184.27
2022-12-15T19:12:24.310Z,157.85
2022-12-15T19:14:50.700Z,151.25
2022-12-15T19:17:17.014Z,202.77
2022-12-15T19:19:43.450Z,247.27
2022-12-15T19:22:09.896Z,266.25
2022-12-15T19:24:36.361Z,259.88
2022-12-15T19:27:02.887Z,242.13
2022-12-15T19:29:29.354Z,221.00
2022-12-15T19:31:55.750Z,212.32
2022-12-15T19:34:22.370Z,191.18
2022-12-15T19:42:00.028Z,157.55
2022-12-15T19:44:26.282Z,151.32
2022-12-15T19:46:52.617Z,140.43
2022-12-15T19:49:18.952Z,135.30
2022-12-15T19:51:45.319Z,127.53
2022-12-15T19:54:11.613Z,114.95
2022-12-15T19:56:38.289Z,144.48
2022-12-15T20:04:24.170Z,179.35
2022-12-15T20:06:50.903Z,163.38
2022-12-15T20:14:32.046Z,134.52
2022-12-15T20:16:58.604Z,126.72
2022-12-15T20:19:24.917Z,115.60
2022-12-15T20:21:51.234Z,113.40
2022-12-15T20:24:17.488Z,108.00
2022-12-15T20:26:43.901Z,96.30
2022-12-15T20:29:10.254Z,93.80
2022-12-15T20:31:36.652Z,89.88
2022-12-15T20:34:03.020Z,88.13
2022-12-15T20:36:29.323Z,78.80
2022-12-15T20:38:55.576Z,217.85
2022-12-15T20:41:21.840Z,202.23
2022-12-15T20:43:48.216Z,182.90
2022-12-15T20:46:14.603Z,174.70
2022-12-15T20:48:40.955Z,160.05
2022-12-15T20:51:09.658Z,127.10
2022-12-15T20:58:54.063Z,72.10
2022-12-15T21:01:20.533Z,58.92
2022-12-15T21:03:47.035Z,58.58
2022-12-15T21:06:13.504Z,48.53
2022-12-15T21:08:39.864Z,58.70
2022-12-15T21:11:06.142Z,57.78
2022-12-15T21:13:32.793Z,64.85
2022-12-15T21:15:59.493Z,78.90
2022-12-15T21:19:18.131Z,83.45
2022-12-15T21:21:12.116Z,85.13
2022-12-15T21:23:42.578Z,82.35
2022-12-15T21:26:09.179Z,79.28
2022-12-15T21:28:35.723Z,79.03
2022-12-15T21:31:02.182Z,81.93
2022-12-15T21:33:28.811Z,73.82
2022-12-15T21:35:55.130Z,76.35
2022-12-15T21:38:21.616Z,81.82
2022-12-15T21:40:47.865Z,163.32
2022-12-15T21:43:14.541Z,183.98
2022-12-15T21:45:41.182Z,207.25
2022-12-15T21:48:07.521Z,207.55
2022-12-15T21:50:33.784Z,199.00
2022-12-15T21:53:00.098Z,201.05
2022-12-15T21:55:26.323Z,192.05
2022-12-15T21:57:52.588Z,189.35
2022-12-15T22:00:18.971Z,188.43
2022-12-15T22:02:45.348Z,182.93
2022-12-15T22:05:11.636Z,298.30
2022-12-15T22:07:38.006Z,488.85
2022-12-15T22:10:04.600Z,477.70
2022-12-15T22:12:31.040Z,439.15
2022-12-15T22:14:57.404Z,411.88
2022-12-15T22:17:23.719Z,412.10
2022-12-15T22:19:50.446Z,427.00
2022-12-15T22:22:17.867Z,427.85
2022-12-15T22:24:44.299Z,420.67
2022-12-15T22:27:10.589Z,417.35
2022-12-15T22:29:38.639Z,425.27
2022-12-15T22:32:05.491Z,419.13
2022-12-15T22:34:31.928Z,407.58
2022-12-15T22:36:58.164Z,396.15
2022-12-15T22:39:24.551Z,404.65
2022-12-15T22:41:50.927Z,392.38
2022-12-15T22:44:17.548Z,384.58
2022-12-15T22:46:44.255Z,376.40
2022-12-15T22:49:10.628Z,372.80
2022-12-15T22:51:36.996Z,369.23
2022-12-15T22:54:03.345Z,359.23
2022-12-15T22:56:29.587Z,355.25
2022-12-15T22:58:55.834Z,334.42
2022-12-15T23:01:22.154Z,343.92
2022-12-15T23:03:48.548Z,332.95
2022-12-15T23:06:14.866Z,327.48
2022-12-15T23:08:41.315Z,317.30
2022-12-15T23:11:07.580Z,310.75
2022-12-15T23:13:34.485Z,302.33
2022-12-15T23:16:01.015Z,299.90
2022-12-15T23:18:27.471Z,289.23
2022-12-15T23:20:53.721Z,287.85
2022-12-15T23:23:20.954Z,281.60
2022-12-15T23:25:47.406Z,272.48
2022-12-15T23:28:13.876Z,273.85
2022-12-15T23:30:40.183Z,258.15
2022-12-15T23:33:06.596Z,261.50
2022-12-15T23:35:32.884Z,251.90
2022-12-15T23:37:59.305Z,252.98
2022-12-15T23:40:25.612Z,241.35
2022-12-15T23:42:51.962Z,243.40
2022-12-15T23:45:18.554Z,241.23
2022-12-15T23:47:45.219Z,230.90
2022-12-15T23:50:11.667Z,227.55
2022-12-15T23:52:38.164Z,226.82
2022-12-15T23:55:04.498Z,222.85
2022-12-15T23:57:30.980Z,219.82
2022-12-15T23:59:57.651Z,210.13
